Skip Navigation LinksHome page > Weather > Current weather Skip Navigation Links

Current Weather

Minneapolis-St Paul Intl/Wold-Chamberlain, Minneapolis

For information only: do not use for flight planning or navigation.
Latest weather
Observation time Sunday, September 20, 2020 9:53 AM CDT
Local time Sunday, September 20, 2020 10:00 AM CDT
Flight conditions Visual Meteorological Conditions
Winds
Wind direction South (170°)
Wind speed 12 mph
Visibility 10 mi.
Sky condition
Ceiling unlimited
Cloud layer few clouds 20,000 ft.
Temperature 60°F
Dewpoint 46°F
Altimeter 30.19 in.Hg
Pressure change last 3 hours-0.01 in.Hg
Pressure rising more slowly
Derived measurements
Relative humidity 60%
Density altitude 758 ft.
Sea-level pressure 30.19 in.Hg
Remarks
Automated weather observing station with precipitation discriminator.
METAR KMSP 201453Z 17010KT 10SM FEW200 16/08 A3019 RMK AO2 SLP223 T01560078 51002

Settings

Location code

InnerDrive.Weather 4.0.6770.0 Release CLR 4.0.30319.42000
Copyright ©2018 Inner Drive Technology. All rights reserved. Portions Copyright ©1986-2018 David Braverman.

Find weather

Site navigation


Skip Navigation Links

Place info

Page info

PayPal - The safer, easier way to pay online!

Return home.

Copyright ©2020 Inner Drive Technology. Purveyors of fine, hand-crafted computer software. Page printed 2020-09-20T15:00:21 UTC.